Time;durP1;ratioP1;P1;durP2;ratioP2;P2;SDS_P1;SDS_P2;PMS_P1;PMS_P2;Temp;Humidity;BMP_temperature;BMP_pressure;BME280_temperature;BME280_humidity;BME280_pressure;Samples;Min_cycle;Max_cycle;Signal;HPM_P1;HPM_P2
2022/10/07 00:01:57;;;;;;;0.90;0.90;;;12.70;91.70;12.00;97113.00;;;;5113193;28;20194;-51
2022/10/07 00:04:23;;;;;;;0.97;0.97;;;12.60;91.90;11.90;97115.00;;;;5113375;28;20214;-51
2022/10/07 00:06:50;;;;;;;1.20;1.20;;;12.60;91.70;11.90;97110.00;;;;5113147;28;20649;-53
2022/10/07 00:09:19;;;;;;;2.13;1.93;;;12.60;92.00;12.00;97108.00;;;;5095640;28;20582;-51
2022/10/07 00:11:45;;;;;;;1.10;1.10;;;12.60;92.20;12.00;97114.00;;;;5115695;28;20204;-52
2022/10/07 00:14:11;;;;;;;3.30;1.77;;;12.60;92.00;12.00;97115.00;;;;5116608;28;20204;-51
2022/10/07 00:16:40;;;;;;;0.83;0.83;;;12.70;91.90;12.00;97114.00;;;;5116646;28;20229;-51
2022/10/07 00:19:10;;;;;;;1.10;1.10;;;12.70;91.50;12.00;97111.00;;;;5116336;28;20229;-51
2022/10/07 00:21:39;;;;;;;1.90;1.20;;;12.60;91.60;11.90;97108.00;;;;5116571;28;20200;-50
2022/10/07 00:24:07;;;;;;;1.17;1.17;;;12.60;91.50;11.90;97109.00;;;;5116449;28;20202;-51
2022/10/07 00:26:36;;;;;;;1.43;1.37;;;12.60;91.80;11.80;97108.00;;;;5098296;28;20316;-50
2022/10/07 00:29:04;;;;;;;2.10;2.00;;;12.50;92.00;11.80;97098.00;;;;5116526;28;20312;-52
2022/10/07 00:31:34;;;;;;;1.37;1.37;;;12.50;92.50;11.90;97109.00;;;;5116560;28;20218;-51
2022/10/07 00:34:03;;;;;;;0.80;0.80;;;12.60;92.50;11.90;97100.00;;;;5116444;28;20284;-51
2022/10/07 00:36:32;;;;;;;0.87;0.87;;;12.60;92.40;11.90;97101.00;;;;5116164;28;20225;-51
2022/10/07 00:39:01;;;;;;;1.23;1.23;;;12.60;92.20;11.80;97097.00;;;;5116084;28;20546;-51
2022/10/07 00:41:31;;;;;;;1.97;1.13;;;12.60;92.30;11.80;97086.00;;;;5116173;28;20202;-51
2022/10/07 00:43:58;;;;;;;0.70;0.70;;;12.50;92.40;11.80;97098.00;;;;5116019;28;20259;-51
2022/10/07 00:46:34;;;;;;;0.50;0.50;;;12.50;92.30;11.80;97089.00;;;;5098120;28;20221;-51
2022/10/07 00:49:07;;;;;;;1.50;1.40;;;12.50;93.30;11.70;97079.00;;;;5116089;28;20655;-51
2022/10/07 00:51:36;;;;;;;0.63;0.63;;;12.40;93.10;11.70;97076.00;;;;5115944;28;20555;-51
2022/10/07 00:54:07;;;;;;;0.60;0.60;;;12.40;93.00;11.80;97057.00;;;;5097989;28;20237;-51
2022/10/07 00:56:38;;;;;;;1.07;0.97;;;12.50;93.10;11.80;97069.00;;;;5115770;28;20225;-51
2022/10/07 00:59:05;;;;;;;1.30;1.13;;;12.50;93.10;11.70;97066.00;;;;5115990;28;20198;-51
2022/10/07 01:01:33;;;;;;;1.00;1.00;;;12.40;93.00;11.70;97069.00;;;;5115821;28;20227;-51
2022/10/07 01:04:00;;;;;;;0.77;0.77;;;12.50;93.50;11.80;97067.00;;;;5115723;28;20665;-51
2022/10/07 01:06:27;;;;;;;10.07;1.37;;;12.50;93.50;11.80;97063.00;;;;5115671;28;20212;-52
2022/10/07 01:08:56;;;;;;;16.63;1.63;;;12.50;93.30;11.80;97062.00;;;;5115656;28;20312;-49
2022/10/07 01:11:45;;;;;;;1.07;1.07;;;12.40;93.00;11.60;97059.00;;;;5115703;28;20209;-49
2022/10/07 01:14:23;;;;;;;0.70;0.70;;;12.40;93.00;11.70;97058.00;;;;5097638;28;20202;-50
2022/10/07 01:17:00;;;;;;;0.87;0.83;;;12.40;93.70;11.70;97065.00;;;;5115431;28;20256;-50
2022/10/07 01:19:56;;;;;;;0.90;0.90;;;12.40;94.00;11.70;97053.00;;;;5115442;28;20198;-50
2022/10/07 01:22:37;;;;;;;0.87;0.87;;;12.40;94.00;11.50;97042.00;;;;5096614;28;20222;-49
2022/10/07 01:25:24;;;;;;;0.77;0.77;;;12.30;93.70;11.50;97038.00;;;;5115400;28;20207;-50
2022/10/07 01:27:59;;;;;;;0.80;0.80;;;12.40;94.10;11.70;97033.00;;;;5115249;28;20254;-50
2022/10/07 01:30:31;;;;;;;1.60;1.50;;;12.40;94.20;11.60;97025.00;;;;5115263;28;20273;-50
2022/10/07 01:33:03;;;;;;;0.70;0.70;;;12.30;94.00;11.70;97032.00;;;;5115306;28;20311;-55
2022/10/07 01:35:36;;;;;;;0.63;0.63;;;12.40;94.50;11.70;97028.00;;;;5115436;28;20248;-52
2022/10/07 01:38:08;;;;;;;0.87;0.87;;;12.40;94.50;11.60;97038.00;;;;5115414;28;20351;-54
2022/10/07 01:40:43;;;;;;;0.70;0.70;;;12.30;94.20;11.40;97022.00;;;;5115327;28;20253;-59
2022/10/07 01:43:13;;;;;;;0.70;0.70;;;12.20;94.50;11.40;97023.00;;;;5115163;28;20280;-51
2022/10/07 01:45:40;;;;;;;0.90;0.90;;;12.10;95.30;11.50;97017.00;;;;5115085;28;20214;-53
2022/10/07 01:48:08;;;;;;;0.63;0.63;;;12.20;95.50;11.50;96998.00;;;;5115344;28;20212;-50
2022/10/07 01:50:36;;;;;;;0.70;0.70;;;12.20;95.10;11.50;97017.00;;;;5115230;28;20190;-52
2022/10/07 01:53:23;;;;;;;0.80;0.80;;;12.20;95.40;11.60;97015.00;;;;5097089;28;20256;-52
2022/10/07 01:56:09;;;;;;;0.50;0.50;;;12.30;95.50;11.50;97010.00;;;;5114813;28;20232;-52
2022/10/07 01:59:04;;;;;;;1.40;1.30;;;12.30;95.00;11.50;97012.00;;;;5115027;28;20793;-50
2022/10/07 02:01:42;;;;;;;0.60;0.60;;;12.20;94.90;11.50;97004.00;;;;5114988;28;20633;-53
2022/10/07 02:04:29;;;;;;;0.50;0.50;;;12.30;95.60;11.60;97001.00;;;;5114752;28;20279;-50
2022/10/07 02:07:12;;;;;;;0.80;0.80;;;12.30;95.50;11.60;96991.00;;;;5115056;28;20621;-61
2022/10/07 02:09:45;;;;;;;1.70;1.57;;;12.30;95.20;11.50;97005.00;;;;5096694;28;20205;-50
2022/10/07 02:12:23;;;;;;;0.50;0.50;;;12.20;95.90;11.40;96992.00;;;;5114721;28;20194;-51
2022/10/07 02:14:57;;;;;;;0.50;0.50;;;12.20;95.30;11.50;96996.00;;;;5114875;28;20186;-51
2022/10/07 02:17:30;;;;;;;0.77;0.77;;;12.20;95.80;11.50;96991.00;;;;5114425;28;20217;-51
2022/10/07 02:19:59;;;;;;;0.50;0.50;;;12.20;95.50;11.50;96990.00;;;;5114551;28;20194;-50
2022/10/07 02:22:28;;;;;;;0.80;0.80;;;12.20;95.60;11.50;96986.00;;;;5114500;28;20304;-50
2022/10/07 02:24:58;;;;;;;0.80;0.80;;;12.20;95.80;11.50;96986.00;;;;5114568;28;20225;-51
2022/10/07 02:27:31;;;;;;;1.10;1.03;;;12.20;95.60;11.50;96975.00;;;;5114411;28;20212;-51
2022/10/07 02:30:06;;;;;;;0.60;0.60;;;12.20;95.60;11.50;96978.00;;;;5096453;28;20312;-51
2022/10/07 02:32:35;;;;;;;0.90;0.90;;;12.20;95.60;11.50;96973.00;;;;5114364;28;20281;-50
2022/10/07 02:35:13;;;;;;;0.93;0.93;;;12.30;95.50;11.50;96977.00;;;;5112058;28;20383;-50
2022/10/07 02:37:43;;;;;;;1.53;1.00;;;12.20;95.30;11.50;96973.00;;;;5113161;28;20309;-50
2022/10/07 02:40:10;;;;;;;0.90;0.90;;;12.20;95.50;11.50;96968.00;;;;5114255;28;20280;-50
2022/10/07 02:42:41;;;;;;;0.80;0.80;;;12.20;95.30;11.50;96969.00;;;;5114244;28;20205;-51
2022/10/07 02:45:18;;;;;;;1.17;1.17;;;12.30;95.40;11.50;96957.00;;;;5114211;28;20530;-51
2022/10/07 02:47:50;;;;;;;0.70;0.70;;;12.30;95.10;11.50;96963.00;;;;5114085;28;20222;-50
2022/10/07 02:50:23;;;;;;;0.70;0.70;;;12.20;94.60;11.50;96959.00;;;;5114200;28;20250;-50
2022/10/07 02:52:55;;;;;;;6.50;1.33;;;12.20;94.40;11.30;96962.00;;;;5114080;28;20243;-50
2022/10/07 02:55:26;;;;;;;0.77;0.77;;;12.10;94.10;11.20;96957.00;;;;5114828;28;20261;-51
2022/10/07 02:57:58;;;;;;;0.90;0.80;;;12.00;94.80;11.20;96961.00;;;;5114019;28;20574;-50
2022/10/07 03:00:29;;;;;;;1.00;1.00;;;11.90;95.50;11.30;96958.00;;;;5113840;28;20669;-50
2022/10/07 03:03:00;;;;;;;1.50;1.40;;;12.00;95.70;11.30;96950.00;;;;5114030;28;20284;-50
2022/10/07 03:05:27;;;;;;;0.97;0.97;;;12.00;96.00;11.30;96950.00;;;;5113713;28;20622;-50
2022/10/07 03:07:57;;;;;;;0.80;0.80;;;12.00;96.20;11.40;96949.00;;;;5095794;28;20633;-50
2022/10/07 03:10:25;;;;;;;0.50;0.50;;;12.10;96.00;11.50;96946.00;;;;5113743;28;20280;-59
2022/10/07 03:12:52;;;;;;;1.23;1.13;;;12.10;96.00;11.50;96951.00;;;;5113760;28;20250;-50
2022/10/07 03:15:19;;;;;;;1.13;1.10;;;12.20;95.50;11.50;96943.00;;;;5113789;28;20205;-50
2022/10/07 03:17:46;;;;;;;1.03;1.03;;;12.20;95.40;11.60;96943.00;;;;5113657;28;20588;-50
2022/10/07 03:20:14;;;;;;;0.50;0.50;;;12.20;95.20;11.40;96946.00;;;;5095740;28;20613;-49
2022/10/07 03:22:42;;;;;;;0.77;0.77;;;12.20;94.30;11.50;96935.00;;;;5113705;28;20213;-49
2022/10/07 03:25:08;;;;;;;1.17;1.07;;;12.20;94.80;11.50;96935.00;;;;5113697;28;20197;-50
2022/10/07 03:27:35;;;;;;;1.20;1.13;;;12.30;94.80;11.50;96929.00;;;;5113589;28;20622;-50
2022/10/07 03:30:01;;;;;;;0.77;0.77;;;12.20;94.70;11.50;96936.00;;;;5113515;28;20300;-51
2022/10/07 03:32:28;;;;;;;0.83;0.83;;;12.20;94.70;11.50;96930.00;;;;5095611;28;20229;-50
2022/10/07 03:34:55;;;;;;;0.80;0.80;;;12.20;95.00;11.50;96938.00;;;;5113506;28;20194;-50
2022/10/07 03:37:22;;;;;;;0.67;0.67;;;12.30;94.80;11.60;96937.00;;;;5113252;28;20222;-50
2022/10/07 03:39:50;;;;;;;4.17;1.77;;;12.30;95.10;11.60;96930.00;;;;5113444;28;20209;-51
2022/10/07 03:42:19;;;;;;;0.97;0.97;;;12.30;95.10;11.60;96930.00;;;;5113303;28;20422;-50
2022/10/07 03:44:48;;;;;;;0.67;0.67;;;12.30;94.80;11.60;96924.00;;;;5113419;28;20544;-50
2022/10/07 03:47:15;;;;;;;0.73;0.73;;;12.30;94.70;11.60;96927.00;;;;5116575;28;20773;-50
2022/10/07 03:49:42;;;;;;;1.00;1.00;;;12.30;94.70;11.60;96925.00;;;;5116961;28;20207;-50
2022/10/07 03:52:11;;;;;;;1.40;1.33;;;12.30;94.60;11.60;96923.00;;;;5116897;28;20233;-50
2022/10/07 03:54:37;;;;;;;0.70;0.70;;;12.30;94.90;11.60;96926.00;;;;5116743;28;20217;-50
2022/10/07 03:57:48;;;;;;;0.77;0.77;;;12.30;94.80;11.60;96921.00;;;;5098826;28;20653;-50
2022/10/07 03:59:52;;;;;;;0.70;0.70;;;12.30;94.80;11.60;96920.00;;;;5116602;28;20197;-50
2022/10/07 04:02:20;;;;;;;1.63;1.53;;;12.40;94.60;11.60;96921.00;;;;5116741;28;20226;-50
2022/10/07 04:04:46;;;;;;;1.37;1.27;;;12.30;94.20;11.60;96918.00;;;;5116742;28;20648;-50
2022/10/07 04:07:13;;;;;;;1.23;1.00;;;12.30;94.50;11.60;96911.00;;;;5116637;28;20281;-50
2022/10/07 04:09:40;;;;;;;0.90;0.90;;;12.30;94.40;11.60;96914.00;;;;5116683;28;20186;-50
2022/10/07 04:12:06;;;;;;;0.60;0.60;;;12.30;93.90;11.60;96908.00;;;;5116629;28;20255;-50
2022/10/07 04:14:33;;;;;;;2.13;1.27;;;12.30;94.20;11.60;96907.00;;;;5116580;28;20625;-50
2022/10/07 04:17:00;;;;;;;0.63;0.63;;;12.30;94.30;11.60;96910.00;;;;5116405;28;20286;-50
2022/10/07 04:19:29;;;;;;;0.80;0.80;;;12.30;94.30;11.60;96909.00;;;;5116590;28;20197;-50
2022/10/07 04:21:55;;;;;;;1.13;1.13;;;12.30;94.40;11.70;96900.00;;;;5116432;28;20199;-50
2022/10/07 04:24:23;;;;;;;0.77;0.77;;;12.30;94.30;11.60;96897.00;;;;5116378;28;20233;-50
2022/10/07 04:26:49;;;;;;;0.70;0.70;;;12.30;94.20;11.70;96900.00;;;;5116352;28;20194;-49
2022/10/07 04:29:16;;;;;;;0.70;0.70;;;12.40;94.20;11.70;96893.00;;;;5098392;28;20233;-49
2022/10/07 04:31:42;;;;;;;1.30;1.27;;;12.40;94.60;11.90;96885.00;;;;5116303;28;20220;-50
2022/10/07 04:34:09;;;;;;;1.33;1.00;;;12.50;97.10;12.00;96880.00;;;;5098135;28;20234;-50
2022/10/07 04:36:37;;;;;;;1.00;1.00;;;12.70;98.00;12.00;96884.00;;;;5116223;28;20214;-50
2022/10/07 04:39:04;;;;;;;1.07;0.90;;;12.70;96.30;11.70;96877.00;;;;5116077;28;20197;-50
2022/10/07 04:41:31;;;;;;;0.57;0.57;;;12.50;95.00;11.70;96881.00;;;;5098352;28;20201;-50
2022/10/07 04:43:57;;;;;;;0.60;0.60;;;12.50;94.40;11.70;96881.00;;;;5115993;28;20209;-50
2022/10/07 04:46:24;;;;;;;0.83;0.83;;;12.40;93.10;11.70;96875.00;;;;5115989;28;20300;-50
2022/10/07 04:48:50;;;;;;;0.70;0.70;;;12.40;93.70;11.60;96876.00;;;;5116093;28;20204;-51
2022/10/07 04:51:17;;;;;;;0.83;0.83;;;12.30;93.90;11.60;96869.00;;;;5116108;28;20229;-50
2022/10/07 04:53:43;;;;;;;0.80;0.80;;;12.30;93.50;11.50;96876.00;;;;5116066;28;20206;-50
2022/10/07 04:56:10;;;;;;;1.10;1.10;;;12.30;94.10;11.50;96871.00;;;;5115812;28;20228;-51
2022/10/07 04:58:37;;;;;;;0.80;0.80;;;12.30;94.40;11.50;96869.00;;;;5114748;28;20717;-50
2022/10/07 05:01:09;;;;;;;0.80;0.80;;;12.20;94.20;11.50;96882.00;;;;5115857;28;20648;-50
2022/10/07 05:03:38;;;;;;;0.60;0.60;;;12.30;94.10;11.50;96871.00;;;;5115902;28;20174;-51
2022/10/07 05:06:06;;;;;;;1.13;1.13;;;12.20;93.90;11.50;96874.00;;;;5115817;28;20272;-50
2022/10/07 05:08:33;;;;;;;0.80;0.80;;;12.20;94.20;11.50;96868.00;;;;5115656;28;20221;-53
2022/10/07 05:11:01;;;;;;;0.60;0.60;;;12.20;94.40;11.50;96870.00;;;;5115877;28;20245;-51
2022/10/07 05:13:29;;;;;;;0.93;0.93;;;12.30;94.60;11.60;96871.00;;;;5115533;28;20225;-51
2022/10/07 05:15:58;;;;;;;0.77;0.77;;;12.30;95.50;11.60;96870.00;;;;5115543;28;20217;-50
2022/10/07 05:18:27;;;;;;;0.60;0.60;;;12.30;94.20;11.60;96868.00;;;;5115539;28;20202;-51
2022/10/07 05:20:54;;;;;;;0.70;0.70;;;12.20;94.40;11.60;96867.00;;;;5097691;28;20701;-50
2022/10/07 05:23:24;;;;;;;1.50;1.30;;;12.30;94.60;11.60;96863.00;;;;5115499;28;20273;-50
2022/10/07 05:26:00;;;;;;;0.63;0.63;;;12.30;94.10;11.60;96865.00;;;;5115525;28;20202;-50
2022/10/07 05:28:27;;;;;;;0.87;0.87;;;12.40;93.90;11.60;96870.00;;;;5115220;28;20210;-50
2022/10/07 05:31:09;;;;;;;1.47;1.43;;;12.40;93.80;11.70;96862.00;;;;5097368;28;20251;-50
2022/10/07 05:33:39;;;;;;;0.80;0.80;;;12.30;93.90;11.70;96871.00;;;;5115377;28;20510;-51
2022/10/07 05:36:08;;;;;;;0.80;0.80;;;12.40;93.80;11.70;96868.00;;;;5115237;28;20218;-50
2022/10/07 05:38:35;;;;;;;0.73;0.73;;;12.40;93.70;11.70;96856.00;;;;5115260;28;20224;-50
2022/10/07 05:41:05;;;;;;;1.73;1.43;;;12.40;93.40;11.70;96857.00;;;;5115143;28;20308;-50
2022/10/07 05:43:35;;;;;;;1.60;1.50;;;12.40;93.00;11.80;96864.00;;;;5115200;28;20664;-51
2022/10/07 05:46:07;;;;;;;0.80;0.80;;;12.40;95.30;11.80;96862.00;;;;5115182;28;20217;-50
2022/10/07 05:48:35;;;;;;;1.90;0.97;;;12.50;95.40;11.90;96854.00;;;;5115007;28;20201;-51
2022/10/07 05:51:03;;;;;;;1.77;1.67;;;12.50;95.70;12.00;96862.00;;;;5115061;28;20198;-50
2022/10/07 05:53:30;;;;;;;0.70;0.70;;;12.60;95.80;12.00;96852.00;;;;5114199;28;20218;-50
2022/10/07 05:55:56;;;;;;;6.00;2.87;;;12.60;94.80;12.00;96852.00;;;;5114904;28;20305;-52
2022/10/07 05:58:23;;;;;;;2.77;1.97;;;12.70;94.50;12.10;96846.00;;;;5113902;28;20237;-50
2022/10/07 06:00:56;;;;;;;1.93;1.80;;;12.70;94.50;12.10;96851.00;;;;5114900;28;20293;-51
2022/10/07 06:03:25;;;;;;;0.53;0.53;;;12.80;93.80;12.20;96848.00;;;;5114909;28;20245;-51
2022/10/07 06:05:53;;;;;;;1.13;1.13;;;12.80;99.10;12.20;96854.00;;;;5114907;28;20190;-51
2022/10/07 06:08:21;;;;;;;1.07;0.87;;;12.80;95.80;12.20;96852.00;;;;5114584;28;20261;-52
2022/10/07 06:13:34;;;;;;;1.17;1.10;;;12.90;95.50;12.40;96841.00;;;;5114760;28;20198;-52
2022/10/07 06:16:06;;;;;;;0.70;0.70;;;13.00;95.50;12.50;96845.00;;;;5114505;28;20232;-51
2022/10/07 06:18:35;;;;;;;0.93;0.93;;;13.10;95.80;12.70;96848.00;;;;5096486;28;20536;-51
2022/10/07 06:21:01;;;;;;;0.50;0.50;;;13.30;95.60;12.80;96843.00;;;;5114522;28;20204;-51
2022/10/07 06:23:29;;;;;;;0.70;0.70;;;13.40;95.30;12.70;96842.00;;;;5114475;28;20667;-51
2022/10/07 06:25:57;;;;;;;1.57;1.47;;;13.40;93.70;12.70;96843.00;;;;5096783;28;20210;-51
2022/10/07 06:28:24;;;;;;;1.17;1.17;;;13.30;93.40;12.70;96845.00;;;;5114531;28;20292;-51
2022/10/07 06:30:51;;;;;;;0.70;0.70;;;13.30;93.80;12.80;96843.00;;;;5114515;28;20514;-51
2022/10/07 06:33:19;;;;;;;1.53;1.43;;;13.30;93.90;12.80;96837.00;;;;5114454;28;20194;-52
2022/10/07 06:35:46;;;;;;;0.80;0.80;;;13.50;93.60;12.90;96844.00;;;;5114174;28;20222;-51
2022/10/07 06:38:12;;;;;;;0.50;0.50;;;13.50;93.90;13.00;96832.00;;;;5114324;28;20230;-51
2022/10/07 06:40:39;;;;;;;1.03;1.00;;;13.60;93.50;13.20;96838.00;;;;5114354;28;20190;-51
2022/10/07 06:43:06;;;;;;;0.83;0.83;;;13.70;93.00;13.10;96834.00;;;;5114262;28;20225;-51
2022/10/07 06:45:33;;;;;;;1.43;1.37;;;13.70;92.90;13.20;96833.00;;;;5096506;28;20210;-51
2022/10/07 06:47:59;;;;;;;0.63;0.63;;;13.80;93.60;13.30;96835.00;;;;5096318;28;20198;-51
2022/10/07 06:50:26;;;;;;;0.87;0.87;;;13.90;93.10;13.40;96831.00;;;;5114287;28;20564;-51
2022/10/07 06:52:55;;;;;;;0.60;0.60;;;14.00;93.80;13.70;96839.00;;;;5114397;28;20201;-51
2022/10/07 06:55:21;;;;;;;0.93;0.93;;;14.20;94.00;13.70;96834.00;;;;5114130;28;20308;-51
2022/10/07 06:57:48;;;;;;;0.70;0.70;;;14.30;93.70;13.60;96837.00;;;;5096302;28;20333;-51
2022/10/07 07:00:15;;;;;;;0.80;0.80;;;14.20;96.50;13.70;96840.00;;;;5114198;28;20273;-51
2022/10/07 07:02:41;;;;;;;0.63;0.63;;;14.30;99.50;13.80;96838.00;;;;5113974;28;20285;-51
2022/10/07 07:05:13;;;;;;;1.47;1.37;;;14.40;98.50;13.80;96840.00;;;;5114070;28;20267;-54
2022/10/07 07:07:39;;;;;;;1.43;1.37;;;14.50;98.80;13.80;96833.00;;;;5113894;28;20538;-51
2022/10/07 07:10:08;;;;;;;1.30;1.20;;;14.40;98.80;14.00;96830.00;;;;5114047;28;20618;-51
2022/10/07 07:12:34;;;;;;;1.20;1.20;;;14.50;99.60;14.10;96834.00;;;;5113898;28;20206;-52
2022/10/07 07:15:01;;;;;;;1.10;1.10;;;14.60;98.90;14.10;96830.00;;;;5113913;28;20230;-51
2022/10/07 07:17:28;;;;;;;1.87;1.77;;;;;14.10;96837.00;;;;5095771;28;20714;-51
2022/10/07 07:19:55;;;;;;;1.07;1.07;;;14.60;99.90;14.20;96831.00;;;;5113794;28;20198;-51
2022/10/07 07:22:21;;;;;;;1.07;1.07;;;14.70;99.90;14.30;96835.00;;;;5117231;28;20197;-53
2022/10/07 07:24:48;;;;;;;3.17;1.40;;;14.80;99.90;14.30;96830.00;;;;5099696;28;20194;-51
2022/10/07 07:27:15;;;;;;;2.00;1.37;;;14.80;99.90;14.40;96834.00;;;;5099418;28;20233;-51
2022/10/07 07:29:44;;;;;;;1.53;1.37;;;15.10;85.70;14.40;96837.00;;;;5099381;28;20221;-54
2022/10/07 07:32:10;;;;;;;1.00;1.00;;;15.00;86.30;14.20;96830.00;;;;5118130;28;20285;-54
2022/10/07 07:34:37;;;;;;;1.37;1.33;;;14.80;87.10;14.30;96829.00;;;;5117111;28;20629;-51
2022/10/07 07:37:03;;;;;;;1.00;1.00;;;14.90;87.30;14.50;96825.00;;;;5117139;28;20225;-52
2022/10/07 07:39:30;;;;;;;2.17;1.97;;;15.00;86.90;14.60;96824.00;;;;5117140;28;20217;-52
2022/10/07 07:41:56;;;;;;;2.10;2.00;;;15.10;86.70;14.50;96824.00;;;;5117168;28;20289;-59
2022/10/07 07:44:24;;;;;;;0.80;0.80;;;15.10;86.60;14.50;96827.00;;;;5117345;28;20194;-52
2022/10/07 07:46:51;;;;;;;1.33;1.27;;;15.00;86.50;14.50;96827.00;;;;5117303;28;20190;-51
2022/10/07 07:49:19;;;;;;;0.80;0.80;;;15.00;86.90;14.80;96831.00;;;;5099263;28;20206;-50
2022/10/07 07:51:48;;;;;;;14.83;1.97;;;15.20;86.50;14.50;96831.00;;;;5116845;28;20222;-50
2022/10/07 07:54:18;;;;;;;1.70;1.60;;;15.00;86.80;14.50;96832.00;;;;5117018;28;20267;-50
2022/10/07 07:56:44;;;;;;;1.00;1.00;;;15.00;87.50;14.70;96828.00;;;;5098807;28;20281;-50
2022/10/07 07:59:11;;;;;;;1.40;1.40;;;15.20;85.30;14.60;96832.00;;;;5116884;28;20210;-50
2022/10/07 08:01:38;;;;;;;0.90;0.90;;;15.10;86.50;14.70;96829.00;;;;5116882;28;20236;-50
2022/10/07 08:04:05;;;;;;;1.97;1.87;;;15.10;85.90;14.70;96828.00;;;;5116671;28;20220;-51
2022/10/07 08:06:33;;;;;;;1.60;1.50;;;15.20;85.30;14.40;96827.00;;;;5116690;28;20196;-50
2022/10/07 08:09:00;;;;;;;1.03;1.03;;;15.00;87.00;14.60;96830.00;;;;5115640;28;20305;-50
2022/10/07 08:11:28;;;;;;;8.20;1.30;;;15.10;88.20;14.70;96814.00;;;;5116599;28;20688;-50
2022/10/07 08:13:56;;;;;;;1.63;1.53;;;15.20;86.20;14.70;96829.00;;;;5116426;28;20633;-50
2022/10/07 08:16:28;;;;;;;1.10;1.10;;;15.20;86.50;14.80;96823.00;;;;5116470;28;20296;-50
2022/10/07 08:18:56;;;;;;;2.17;2.07;;;15.40;84.50;14.80;96819.00;;;;5116536;28;20564;-50
2022/10/07 08:21:27;;;;;;;1.60;1.30;;;15.30;85.40;15.10;96820.00;;;;5116381;28;20218;-51
2022/10/07 08:23:56;;;;;;;2.20;1.37;;;15.50;86.00;15.20;96816.00;;;;5115519;28;20670;-51
2022/10/07 08:26:26;;;;;;;0.80;0.80;;;15.60;85.40;15.00;96820.00;;;;5116395;28;20222;-51
2022/10/07 08:28:52;;;;;;;1.03;1.03;;;15.50;84.30;15.20;96812.00;;;;5116386;28;20209;-50
2022/10/07 08:31:19;;;;;;;1.13;1.13;;;15.60;83.10;15.10;96811.00;;;;5116240;28;20205;-51
2022/10/07 08:33:49;;;;;;;0.90;0.90;;;15.60;83.80;15.10;96814.00;;;;5116303;28;20237;-50
2022/10/07 08:36:21;;;;;;;0.80;0.80;;;15.80;83.50;15.20;96816.00;;;;5116392;28;20217;-53
2022/10/07 08:38:49;;;;;;;1.50;1.40;;;15.70;84.10;15.40;96813.00;;;;5116357;28;20230;-51
2022/10/07 08:41:33;;;;;;;1.40;1.40;;;15.80;84.70;15.40;96801.00;;;;5116265;28;20281;-51
2022/10/07 08:44:17;;;;;;;1.80;1.70;;;15.90;83.00;15.50;96809.00;;;;5116042;28;20688;-51
2022/10/07 08:46:54;;;;;;;1.27;1.27;;;16.00;83.40;15.70;96804.00;;;;5116149;28;20301;-51
2022/10/07 08:49:32;;;;;;;0.87;0.87;;;16.10;81.20;15.60;96802.00;;;;5098163;28;20231;-51
2022/10/07 08:52:15;;;;;;;1.03;1.03;;;16.10;82.70;15.60;96798.00;;;;5116065;28;20336;-51
2022/10/07 08:54:42;;;;;;;1.73;1.63;;;16.10;82.70;15.60;96802.00;;;;5115939;28;20300;-51
2022/10/07 08:57:21;;;;;;;2.13;1.27;;;16.10;82.70;15.80;96802.00;;;;5115969;28;20557;-52
2022/10/07 08:59:56;;;;;;;1.17;1.17;;;16.20;82.00;16.20;96798.00;;;;5115972;28;20197;-51
2022/10/07 09:02:35;;;;;;;1.80;1.70;;;16.60;81.10;16.00;96791.00;;;;5115870;28;20221;-51
2022/10/07 09:05:16;;;;;;;2.87;1.10;;;16.40;81.40;15.90;96797.00;;;;5115791;28;20221;-51
2022/10/07 09:07:48;;;;;;;0.90;0.90;;;;;15.90;96796.00;;;;5115556;28;20220;-51
2022/10/07 09:10:30;;;;;;;1.33;1.10;;;16.30;81.50;15.90;96792.00;;;;5097920;28;20285;-51
2022/10/07 09:13:02;;;;;;;1.37;1.33;;;16.40;81.10;16.10;96781.00;;;;5115573;28;20264;-51
2022/10/07 09:15:38;;;;;;;1.00;1.00;;;;;15.80;96788.00;;;;5115767;28;20252;-53
2022/10/07 09:18:21;;;;;;;1.00;1.00;;;16.40;80.60;16.20;96766.00;;;;5115483;28;20312;-51
2022/10/07 09:20:54;;;;;;;1.40;1.30;;;16.70;80.60;16.30;96774.00;;;;5115650;28;20274;-50
2022/10/07 09:23:27;;;;;;;1.53;1.43;;;16.60;79.30;16.20;96775.00;;;;5115470;28;20210;-51
2022/10/07 09:25:54;;;;;;;1.10;1.10;;;16.60;81.00;16.50;96762.00;;;;5097643;28;20201;-52
2022/10/07 09:28:28;;;;;;;1.60;1.50;;;16.90;81.70;17.00;96771.00;;;;5115537;28;20200;-52
2022/10/07 09:30:59;;;;;;;1.00;1.00;;;17.40;77.50;16.90;96769.00;;;;5115557;28;20334;-52
2022/10/07 09:33:28;;;;;;;1.50;1.40;;;17.60;76.60;17.20;96762.00;;;;5115502;28;20204;-52
2022/10/07 09:36:03;;;;;;;1.70;1.60;;;17.40;75.20;16.80;96756.00;;;;5115157;28;20218;-50
2022/10/07 09:38:34;;;;;;;1.07;1.07;;;17.30;77.40;16.90;96740.00;;;;5115294;28;20277;-52
2022/10/07 09:41:16;;;;;;;1.47;1.37;;;17.60;76.50;17.10;96748.00;;;;5115163;28;20226;-51
2022/10/07 09:44:03;;;;;;;0.90;0.90;;;17.70;76.60;17.40;96752.00;;;;5114544;28;20214;-51
2022/10/07 09:46:46;;;;;;;1.00;1.00;;;17.60;74.00;17.20;96747.00;;;;5097302;28;20209;-51
2022/10/07 09:49:32;;;;;;;1.10;1.00;;;17.60;75.90;17.40;96750.00;;;;5115157;28;20213;-51
2022/10/07 09:52:02;;;;;;;0.90;0.90;;;17.80;74.50;17.40;96748.00;;;;5114984;28;20194;-51
2022/10/07 09:54:33;;;;;;;2.20;1.80;;;17.50;74.70;17.10;96750.00;;;;5115171;28;20237;-51
2022/10/07 09:57:02;;;;;;;2.10;1.83;;;17.60;75.60;17.40;96747.00;;;;5115065;28;20222;-53
2022/10/07 09:59:31;;;;;;;2.07;1.97;;;17.70;74.70;17.30;96748.00;;;;5114795;28;20224;-51
2022/10/07 10:02:00;;;;;;;1.17;1.07;;;17.60;75.70;17.30;96744.00;;;;5114834;28;20273;-51
2022/10/07 10:04:34;;;;;;;1.90;1.80;;;17.70;75.80;17.20;96746.00;;;;5114834;28;20286;-51
2022/10/07 10:07:04;;;;;;;1.90;1.30;;;17.70;76.70;17.50;96742.00;;;;5114744;28;20296;-51
2022/10/07 10:09:34;;;;;;;1.33;1.30;;;17.80;75.40;17.40;96731.00;;;;5114526;28;20208;-50
2022/10/07 10:12:14;;;;;;;0.87;0.87;;;17.90;76.00;17.50;96735.00;;;;5114406;28;20186;-53
2022/10/07 10:14:47;;;;;;;2.03;1.70;;;18.10;74.40;17.80;96736.00;;;;5114709;28;20201;-51
2022/10/07 10:17:33;;;;;;;1.43;1.43;;;18.10;74.10;17.80;96736.00;;;;5114610;28;20274;-51
2022/10/07 10:20:31;;;;;;;2.47;2.30;;;18.20;72.40;17.90;96726.00;;;;5114581;28;20205;-51
2022/10/07 10:22:59;;;;;;;2.00;1.90;;;18.30;73.50;18.30;96717.00;;;;5114608;28;20232;-51
2022/10/07 10:28:37;;;;;;;0.80;0.80;;;;;19.20;96711.00;;;;5114466;28;20716;-52
2022/10/07 10:31:17;;;;;;;0.70;0.70;;;19.40;68.40;19.20;96713.00;;;;5114471;28;20182;-52
2022/10/07 10:33:51;;;;;;;0.73;0.73;;;19.50;68.90;19.40;96713.00;;;;5114454;28;20226;-52
2022/10/07 10:36:23;;;;;;;4.73;1.80;;;19.70;67.30;19.30;96710.00;;;;5114218;28;20308;-52
2022/10/07 10:39:03;;;;;;;1.00;1.00;;;19.70;68.00;19.50;96704.00;;;;5096371;28;20580;-52
2022/10/07 10:41:42;;;;;;;1.40;1.30;;;19.90;67.20;19.30;96715.00;;;;5114351;28;20200;-51
2022/10/07 10:44:35;;;;;;;1.47;1.30;;;19.70;65.60;19.40;96697.00;;;;5114242;28;20202;-52
2022/10/07 10:47:14;;;;;;;2.20;2.10;;;19.70;66.50;19.50;96695.00;;;;5114250;28;20656;-52
2022/10/07 10:49:56;;;;;;;0.87;0.87;;;19.70;66.50;19.40;96693.00;;;;5114212;28;20218;-52
2022/10/07 10:52:33;;;;;;;1.10;1.10;;;;;18.60;96690.00;;;;5114130;28;20651;-52
2022/10/07 10:55:21;;;;;;;1.53;1.53;;;;;18.40;96693.00;;;;5095510;28;20208;-52
2022/10/07 10:58:00;;;;;;;1.57;1.47;;;;;18.50;96673.00;;;;5094256;28;20267;-52
2022/10/07 11:00:36;;;;;;;0.93;0.93;;;;;18.40;96671.00;;;;5114095;28;20220;-52
2022/10/07 11:03:25;;;;;;;1.70;1.20;;;;;18.60;96677.00;;;;5113940;28;20217;-53
2022/10/07 11:05:55;;;;;;;1.70;1.60;;;;;18.90;96674.00;;;;5113938;28;20193;-51
2022/10/07 11:08:25;;;;;;;1.73;1.63;;;;;19.60;96680.00;;;;5113195;28;20568;-51
2022/10/07 11:10:57;;;;;;;2.03;1.93;;;;;19.10;96675.00;;;;5113927;28;20590;-51
2022/10/07 11:13:33;;;;;;;0.97;0.97;;;;;18.20;96678.00;;;;5113780;28;20303;-52
2022/10/07 11:16:05;;;;;;;1.03;1.03;;;;;18.60;96677.00;;;;5113901;28;20349;-51
2022/10/07 11:18:37;;;;;;;1.53;1.43;;;;;18.70;96668.00;;;;5113920;28;20212;-51
2022/10/07 11:21:09;;;;;;;1.57;1.47;;;;;18.70;96668.00;;;;5113803;28;20205;-51
2022/10/07 11:23:46;;;;;;;1.10;1.10;;;;;18.60;96667.00;;;;5113833;28;20205;-51